Time;durP1;ratioP1;P1;durP2;ratioP2;P2;SDS_P1;SDS_P2;PMS_P1;PMS_P2;Temp;Humidity;BMP_temperature;BMP_pressure;BME280_temperature;BME280_humidity;BME280_pressure;Samples;Min_cycle;Max_cycle;Signal;HPM_P1;HPM_P2
2021/03/21 00:01:11;;;;;;;6.23;2.33;;;6.40;84.30;;;;;;4975713;28;20440;-90
2021/03/21 00:03:37;;;;;;;6.33;2.40;;;6.40;84.30;;;;;;4976146;28;20023;-89
2021/03/21 00:06:04;;;;;;;4.60;2.30;;;6.40;84.30;;;;;;4976454;28;20124;-89
2021/03/21 00:08:31;;;;;;;7.23;2.50;;;6.30;85.40;;;;;;4977591;28;20031;-89
2021/03/21 00:11:05;;;;;;;8.20;2.57;;;6.40;84.90;;;;;;4978036;28;20026;-90
2021/03/21 00:13:31;;;;;;;5.63;2.40;;;6.30;84.90;;;;;;4978775;28;20085;-90
2021/03/21 00:15:58;;;;;;;6.50;2.30;;;6.30;85.10;;;;;;4995746;28;20381;-89
2021/03/21 00:18:29;;;;;;;6.37;2.30;;;6.30;84.90;;;;;;4976662;28;20029;-89
2021/03/21 00:20:55;;;;;;;5.23;2.20;;;6.30;85.30;;;;;;4975495;28;20034;-90
2021/03/21 00:23:21;;;;;;;4.43;2.17;;;6.30;84.90;;;;;;4975010;28;20030;-89
2021/03/21 00:25:47;;;;;;;3.53;2.00;;;6.30;85.20;;;;;;4975369;28;20487;-89
2021/03/21 00:28:16;;;;;;;4.90;2.27;;;6.30;85.20;;;;;;4975186;28;20030;-88
2021/03/21 00:30:44;;;;;;;6.00;2.33;;;6.30;85.40;;;;;;4975235;28;20048;-89
2021/03/21 00:33:13;;;;;;;4.77;2.50;;;6.30;86.20;;;;;;4975111;28;20459;-89
2021/03/21 00:35:39;;;;;;;6.30;2.53;;;6.40;85.90;;;;;;4974881;28;20042;-89
2021/03/21 00:38:08;;;;;;;13.13;4.60;;;6.30;85.50;;;;;;4975030;28;20492;-89
2021/03/21 00:40:34;;;;;;;;;;;6.30;85.70;;;;;;4976302;28;20022;-89
2021/03/21 00:43:00;;;;;;;7.77;3.17;;;6.40;86.30;;;;;;4976845;28;19913;-89
2021/03/21 00:45:27;;;;;;;10.27;3.90;;;6.40;86.60;;;;;;4976565;28;20027;-89
2021/03/21 00:47:53;;;;;;;7.67;3.17;;;6.40;86.40;;;;;;4976885;28;20105;-89
2021/03/21 00:50:28;;;;;;;5.27;2.80;;;6.30;87.60;;;;;;4993884;28;20061;-88
2021/03/21 00:52:53;;;;;;;8.63;3.83;;;6.30;87.70;;;;;;4977599;28;20031;-89
2021/03/21 00:55:20;;;;;;;6.37;3.20;;;6.30;86.90;;;;;;4977667;28;20035;-89
2021/03/21 00:57:46;;;;;;;5.97;2.83;;;6.30;86.50;;;;;;4976985;28;20029;-88
2021/03/21 01:00:33;;;;;;;7.70;3.23;;;6.30;88.10;;;;;;4977296;28;20054;-89
2021/03/21 01:02:59;;;;;;;7.43;3.10;;;6.40;89.30;;;;;;4977888;28;20611;-88
2021/03/21 01:05:30;;;;;;;6.83;3.20;;;6.30;88.40;;;;;;4980702;28;20342;-90
2021/03/21 01:07:57;;;;;;;6.97;3.17;;;6.30;87.50;;;;;;4982091;28;20038;-89
2021/03/21 01:10:35;;;;;;;5.80;3.00;;;6.30;87.00;;;;;;4998764;28;20037;-89
2021/03/21 01:13:03;;;;;;;7.00;3.50;;;6.30;87.90;;;;;;4980949;28;20137;-88
2021/03/21 01:15:29;;;;;;;7.27;3.47;;;6.30;87.70;;;;;;4978788;28;20615;-89
2021/03/21 01:17:56;;;;;;;7.10;3.53;;;6.30;87.00;;;;;;4979046;28;20037;-88
2021/03/21 01:20:27;;;;;;;9.70;3.70;;;6.30;86.90;;;;;;4978898;28;20038;-88
2021/03/21 01:22:53;;;;;;;7.63;3.37;;;6.40;86.90;;;;;;4979543;28;20400;-88
2021/03/21 01:25:21;;;;;;;7.00;3.50;;;6.30;86.80;;;;;;4998447;28;20034;-89
2021/03/21 01:27:47;;;;;;;9.73;3.80;;;6.30;87.10;;;;;;4980630;28;20444;-88
2021/03/21 01:30:13;;;;;;;8.23;3.70;;;6.30;87.00;;;;;;4980633;28;20062;-90
2021/03/21 01:32:39;;;;;;;9.90;3.93;;;6.30;86.80;;;;;;4965463;28;20136;-89
2021/03/21 01:35:07;;;;;;;6.73;3.43;;;6.30;87.50;;;;;;4999407;28;20034;-89
2021/03/21 01:37:33;;;;;;;8.13;3.63;;;6.40;87.60;;;;;;4981780;28;20030;-89
2021/03/21 01:39:59;;;;;;;9.73;4.20;;;6.30;88.40;;;;;;4983031;28;20045;-89
2021/03/21 01:42:25;;;;;;;8.83;3.90;;;6.40;87.80;;;;;;4987049;28;20694;-88
2021/03/21 01:44:54;;;;;;;9.67;4.40;;;6.30;87.30;;;;;;4986088;28;20451;-89
2021/03/21 01:47:47;;;;;;;11.40;4.20;;;6.30;87.50;;;;;;4994246;28;20037;-88
2021/03/21 01:50:27;;;;;;;9.87;4.40;;;6.30;88.80;;;;;;4998194;28;20054;-89
2021/03/21 01:52:54;;;;;;;10.47;4.47;;;6.30;88.90;;;;;;5000745;28;20559;-90
2021/03/21 01:55:22;;;;;;;11.63;4.80;;;6.30;88.60;;;;;;4997763;28;20034;-89
2021/03/21 01:57:50;;;;;;;10.25;4.45;;;6.30;88.00;;;;;;4980740;28;20484;-89
2021/03/21 02:00:17;;;;;;;10.03;4.10;;;6.30;88.50;;;;;;4997045;28;20065;-89
2021/03/21 02:02:43;;;;;;;9.27;4.03;;;6.30;87.90;;;;;;4979245;28;20033;-89
2021/03/21 02:05:09;;;;;;;9.53;4.00;;;6.30;88.20;;;;;;4978946;28;20113;-89
2021/03/21 02:07:59;;;;;;;7.33;3.83;;;6.30;88.50;;;;;;4978952;28;20077;-89
2021/03/21 02:10:33;;;;;;;9.53;3.90;;;6.40;88.40;;;;;;4977948;28;20073;-89
2021/03/21 02:13:12;;;;;;;7.13;3.63;;;6.40;88.60;;;;;;4978264;28;20030;-89
2021/03/21 02:15:59;;;;;;;8.75;3.88;;;6.40;88.50;;;;;;4994515;28;20033;-89
2021/03/21 02:18:51;;;;;;;8.00;3.53;;;6.40;88.60;;;;;;4977767;28;20208;-88
2021/03/21 02:21:16;;;;;;;7.37;3.43;;;6.40;89.90;;;;;;4979026;28;20506;-89
2021/03/21 02:24:10;;;;;;;9.90;4.17;;;6.40;88.50;;;;;;4978432;28;20121;-89
2021/03/21 02:26:59;;;;;;;8.80;3.70;;;6.30;88.50;;;;;;4977481;28;20030;-89
2021/03/21 02:29:47;;;;;;;8.73;3.87;;;6.30;88.60;;;;;;4977503;28;20026;-89
2021/03/21 02:32:21;;;;;;;7.20;3.73;;;6.30;88.60;;;;;;4977856;28;20183;-89
2021/03/21 02:34:46;;;;;;;9.03;4.20;;;6.30;88.70;;;;;;4976705;28;20027;-90
2021/03/21 02:37:32;;;;;;;8.80;3.83;;;6.30;88.90;;;;;;4977601;28;20484;-90
2021/03/21 02:40:18;;;;;;;8.90;4.33;;;6.30;89.10;;;;;;4977371;28;20388;-89
2021/03/21 02:42:54;;;;;;;9.03;4.47;;;6.40;88.90;;;;;;4977612;28;20022;-88
2021/03/21 02:45:27;;;;;;;10.70;4.10;;;6.30;88.50;;;;;;4995197;28;20150;-89
2021/03/21 02:47:58;;;;;;;9.47;4.43;;;6.30;90.90;;;;;;4977736;28;20053;-89
2021/03/21 02:50:30;;;;;;;11.00;4.43;;;6.30;88.80;;;;;;4977964;28;20447;-90
2021/03/21 02:53:04;;;;;;;10.80;4.40;;;6.30;89.00;;;;;;4978046;28;20057;-89
2021/03/21 02:55:37;;;;;;;10.03;4.17;;;6.30;89.00;;;;;;4977404;28;20038;-89
2021/03/21 02:58:20;;;;;;;10.20;4.50;;;6.30;89.00;;;;;;4976932;28;20487;-89
2021/03/21 03:00:55;;;;;;;11.63;4.77;;;6.30;90.00;;;;;;4976951;28;20498;-89
2021/03/21 03:03:24;;;;;;;9.53;4.00;;;6.30;89.70;;;;;;4976705;28;20126;-89
2021/03/21 03:05:57;;;;;;;9.03;3.90;;;6.30;89.70;;;;;;4976326;28;20100;-89
2021/03/21 03:08:42;;;;;;;8.53;3.87;;;6.30;90.20;;;;;;4976386;28;20455;-88
2021/03/21 03:11:17;;;;;;;9.60;3.93;;;6.30;89.90;;;;;;4976873;28;20030;-90
2021/03/21 03:13:47;;;;;;;9.17;4.00;;;6.30;89.50;;;;;;4976704;28;20037;-87
2021/03/21 03:16:39;;;;;;;8.20;3.53;;;6.30;89.70;;;;;;4976515;28;20093;-89
2021/03/21 03:19:31;;;;;;;7.63;3.33;;;6.30;90.20;;;;;;4941005;28;20038;-90
2021/03/21 03:22:00;;;;;;;8.93;3.60;;;6.30;89.70;;;;;;4977538;28;20027;-89
2021/03/21 03:24:44;;;;;;;8.35;3.63;;;6.30;89.80;;;;;;4976869;28;20027;-88
2021/03/21 03:27:21;;;;;;;8.10;3.37;;;6.30;90.40;;;;;;4995560;28;20029;-88
2021/03/21 03:30:01;;;;;;;8.10;3.27;;;6.30;89.90;;;;;;4996358;28;20046;-88
2021/03/21 03:32:27;;;;;;;6.23;3.33;;;6.40;89.90;;;;;;4988439;28;20500;-89
2021/03/21 03:34:56;;;;;;;6.77;3.17;;;6.30;90.20;;;;;;4976254;28;20033;-89
2021/03/21 03:37:23;;;;;;;6.40;3.27;;;6.40;90.10;;;;;;4976421;28;20455;-89
2021/03/21 03:39:49;;;;;;;7.93;3.30;;;6.40;89.90;;;;;;4976387;28;20034;-89
2021/03/21 03:42:39;;;;;;;7.47;3.13;;;6.40;90.20;;;;;;4976431;28;20027;-89
2021/03/21 03:45:15;;;;;;;6.27;3.20;;;6.40;90.10;;;;;;4976668;28;20545;-89
2021/03/21 03:48:18;;;;;;;7.90;3.10;;;6.40;90.30;;;;;;4976393;28;20034;-90
2021/03/21 03:50:47;;;;;;;7.13;3.50;;;6.40;90.30;;;;;;4976383;28;20061;-90
2021/03/21 03:53:24;;;;;;;6.45;3.30;;;6.30;90.40;;;;;;4976578;28;20026;-91
2021/03/21 03:56:20;;;;;;;6.03;3.17;;;6.40;90.30;;;;;;4976097;28;20037;-90
2021/03/21 03:59:07;;;;;;;8.33;3.33;;;6.30;90.40;;;;;;4975960;28;20518;-90
2021/03/21 04:01:41;;;;;;;8.17;3.50;;;6.30;90.30;;;;;;4976130;28;20024;-89
2021/03/21 04:04:19;;;;;;;7.83;3.30;;;6.30;90.20;;;;;;4976316;28;20030;-90
2021/03/21 04:06:50;;;;;;;7.50;3.33;;;6.40;90.30;;;;;;4976042;28;20028;-90
2021/03/21 04:09:36;;;;;;;6.03;3.10;;;6.40;90.30;;;;;;4976361;28;20042;-90
2021/03/21 04:12:17;;;;;;;7.80;3.43;;;6.40;90.50;;;;;;4976946;28;20027;-89
2021/03/21 04:14:52;;;;;;;6.50;3.03;;;6.40;90.30;;;;;;4976752;28;20026;-90
2021/03/21 04:17:39;;;;;;;8.33;3.43;;;6.40;90.70;;;;;;4979453;28;20018;-89
2021/03/21 04:20:21;;;;;;;9.40;3.33;;;6.40;90.50;;;;;;4982625;28;20022;-89
2021/03/21 04:22:52;;;;;;;10.07;3.30;;;6.40;90.40;;;;;;4986621;28;20046;-89
2021/03/21 04:25:22;;;;;;;8.47;3.47;;;6.40;90.80;;;;;;4987847;28;20034;-90
2021/03/21 04:27:58;;;;;;;8.03;3.70;;;6.40;90.60;;;;;;4995862;28;20026;-89
2021/03/21 04:30:33;;;;;;;9.30;4.00;;;6.40;90.60;;;;;;4994788;28;20046;-90
2021/03/21 04:33:00;;;;;;;8.90;3.60;;;6.40;90.40;;;;;;4995148;28;20034;-90
2021/03/21 04:35:39;;;;;;;9.00;3.77;;;6.40;90.40;;;;;;4984599;28;20034;-89
2021/03/21 04:38:19;;;;;;;7.73;3.60;;;6.40;90.50;;;;;;4975782;28;20080;-89
2021/03/21 04:40:45;;;;;;;9.73;3.73;;;6.50;90.30;;;;;;4976533;28;20026;-90
2021/03/21 04:43:19;;;;;;;11.23;3.97;;;6.50;90.20;;;;;;4975916;28;20023;-89
2021/03/21 04:45:50;;;;;;;9.07;3.80;;;6.50;90.60;;;;;;4977385;28;20037;-90
2021/03/21 04:48:22;;;;;;;9.47;3.80;;;6.40;90.40;;;;;;4975880;28;20026;-90
2021/03/21 04:50:53;;;;;;;9.90;4.03;;;6.40;90.30;;;;;;4975264;28;20058;-89
2021/03/21 04:53:42;;;;;;;11.37;3.80;;;6.40;90.40;;;;;;4975097;28;20108;-90
2021/03/21 04:56:23;;;;;;;8.52;3.60;;;6.40;90.30;;;;;;4974715;28;20029;-89
2021/03/21 04:58:53;;;;;;;10.03;3.90;;;6.50;90.40;;;;;;4992640;28;20027;-90
2021/03/21 05:01:51;;;;;;;12.43;3.90;;;6.50;90.20;;;;;;4975445;28;20033;-90
2021/03/21 05:04:27;;;;;;;8.93;3.60;;;6.50;90.30;;;;;;4975662;28;20030;-89
2021/03/21 05:06:59;;;;;;;12.63;3.90;;;6.50;90.20;;;;;;4975136;28;20023;-90
2021/03/21 05:09:38;;;;;;;11.80;3.73;;;6.50;90.80;;;;;;4974589;28;20136;-89
2021/03/21 05:12:14;;;;;;;9.63;3.37;;;6.50;90.30;;;;;;4975008;28;20064;-90
2021/03/21 05:14:57;;;;;;;11.47;4.03;;;6.50;90.30;;;;;;4974813;28;20476;-88
2021/03/21 05:17:54;;;;;;;11.97;3.83;;;6.50;90.40;;;;;;4974954;28;20182;-90
2021/03/21 05:20:33;;;;;;;11.33;3.77;;;6.50;90.40;;;;;;4974798;28;20117;-89
2021/03/21 05:23:13;;;;;;;11.53;3.53;;;6.40;90.40;;;;;;4974780;28;20380;-90
2021/03/21 05:25:47;;;;;;;10.73;3.83;;;6.40;90.30;;;;;;4974480;28;20026;-90
2021/03/21 05:28:41;;;;;;;14.77;4.60;;;6.40;90.30;;;;;;4974429;28;20027;-89
2021/03/21 05:31:07;;;;;;;11.40;4.23;;;6.40;90.50;;;;;;4974645;28;20054;-90
2021/03/21 05:33:32;;;;;;;11.83;3.33;;;6.40;90.30;;;;;;4974680;28;20113;-89
2021/03/21 05:36:03;;;;;;;14.33;3.40;;;6.40;90.40;;;;;;4974286;28;20062;-89
2021/03/21 05:38:45;;;;;;;11.17;3.43;;;6.40;90.40;;;;;;4974450;28;20121;-88
2021/03/21 05:41:16;;;;;;;12.83;3.53;;;6.40;91.00;;;;;;4974588;28;20022;-89
2021/03/21 05:43:50;;;;;;;11.63;4.00;;;6.40;90.70;;;;;;4992062;28;20472;-90
2021/03/21 05:46:34;;;;;;;11.67;3.60;;;6.40;90.60;;;;;;4974018;28;20038;-89
2021/03/21 05:49:38;;;;;;;14.17;3.97;;;6.40;90.90;;;;;;4974540;28;20472;-90
2021/03/21 05:52:43;;;;;;;10.13;3.57;;;6.40;90.80;;;;;;4950259;28;20049;-90
2021/03/21 05:55:27;;;;;;;11.43;3.43;;;6.40;90.50;;;;;;4977145;28;20546;-86
2021/03/21 05:57:52;;;;;;;9.67;3.67;;;6.40;90.50;;;;;;4978109;28;20030;-89
2021/03/21 06:00:49;;;;;;;10.17;3.13;;;6.40;90.60;;;;;;4977433;28;20125;-89
2021/03/21 06:03:51;;;;;;;9.80;3.70;;;6.40;90.90;;;;;;4977674;28;20124;-90
2021/03/21 06:06:35;;;;;;;10.40;3.03;;;6.40;90.60;;;;;;4977609;28;20026;-90
2021/03/21 06:09:28;;;;;;;7.17;3.13;;;6.40;90.70;;;;;;4977627;28;20121;-89
2021/03/21 06:12:14;;;;;;;12.90;3.63;;;6.40;90.80;;;;;;4977129;28;20512;-89
2021/03/21 06:15:19;;;;;;;7.73;2.93;;;6.40;90.60;;;;;;4977145;28;20026;-90
2021/03/21 06:18:26;;;;;;;9.13;2.60;;;6.40;90.50;;;;;;4977631;28;20026;-88
2021/03/21 06:21:28;;;;;;;9.57;3.10;;;6.40;90.60;;;;;;4899996;29;20036;-89
2021/03/21 06:24:14;;;;;;;8.20;3.10;;;6.40;90.60;;;;;;4917742;29;20039;-90
2021/03/21 06:26:43;;;;;;;9.27;3.20;;;6.40;90.60;;;;;;4971739;28;20085;-89
2021/03/21 06:29:37;;;;;;;6.67;2.80;;;6.40;90.50;;;;;;4984363;28;20030;-90
2021/03/21 06:32:31;;;;;;;8.97;2.60;;;6.40;90.70;;;;;;4976835;28;20037;-90
2021/03/21 06:35:21;;;;;;;10.20;2.73;;;6.40;90.70;;;;;;4976293;28;20045;-90
2021/03/21 06:38:13;;;;;;;7.83;2.80;;;6.40;90.60;;;;;;4977099;28;20029;-91
2021/03/21 06:40:55;;;;;;;10.87;2.90;;;6.50;90.90;;;;;;4976642;28;20534;-90
2021/03/21 06:43:37;;;;;;;10.27;2.43;;;6.50;90.90;;;;;;4976724;28;20109;-90
2021/03/21 06:46:26;;;;;;;12.23;2.73;;;6.40;90.80;;;;;;4976877;28;20511;-90
2021/03/21 06:49:14;;;;;;;14.20;2.87;;;6.50;90.60;;;;;;4976775;28;20502;-90
2021/03/21 06:52:05;;;;;;;14.40;2.63;;;6.50;90.50;;;;;;4976461;28;20511;-90
2021/03/21 06:54:54;;;;;;;11.47;2.60;;;6.50;90.60;;;;;;4976598;28;20036;-90
2021/03/21 06:57:44;;;;;;;13.20;2.50;;;6.40;90.60;;;;;;4976878;28;20026;-90
2021/03/21 07:00:38;;;;;;;17.83;3.20;;;6.50;90.60;;;;;;4976598;28;20030;-90
2021/03/21 07:03:22;;;;;;;15.87;2.83;;;6.50;90.50;;;;;;4977436;28;20023;-89
2021/03/21 07:06:42;;;;;;;14.53;2.90;;;6.50;90.40;;;;;;4978251;28;20117;-91
2021/03/21 07:09:38;;;;;;;14.97;2.57;;;6.50;90.50;;;;;;4903692;29;20032;-89
2021/03/21 07:12:33;;;;;;;11.70;2.70;;;6.50;90.90;;;;;;4980457;28;20030;-90
2021/03/21 07:15:37;;;;;;;14.87;3.67;;;6.50;90.50;;;;;;4978896;28;20030;-89
2021/03/21 07:18:28;;;;;;;13.53;2.90;;;6.50;90.40;;;;;;4976250;28;20025;-89
2021/03/21 07:21:35;;;;;;;19.50;3.40;;;6.50;90.60;;;;;;4976278;28;20026;-89
2021/03/21 07:24:11;;;;;;;18.80;3.30;;;6.50;90.40;;;;;;4914357;28;20088;-90
2021/03/21 07:26:55;;;;;;;22.10;3.40;;;6.50;90.50;;;;;;4993314;28;20396;-88
2021/03/21 07:29:24;;;;;;;17.83;3.73;;;6.50;90.40;;;;;;4976014;28;20054;-90
2021/03/21 07:32:08;;;;;;;18.03;3.27;;;6.50;90.30;;;;;;4975816;28;20415;-90
2021/03/21 07:34:54;;;;;;;17.83;3.27;;;6.50;90.50;;;;;;4975560;28;20126;-91
2021/03/21 07:37:57;;;;;;;26.97;5.37;;;6.50;90.30;;;;;;4975423;28;20030;-90
2021/03/21 07:40:31;;;;;;;15.90;3.10;;;6.60;90.10;;;;;;4975991;28;20106;-88
2021/03/21 07:43:09;;;;;;;21.40;3.73;;;6.50;90.10;;;;;;4993630;28;20271;-90
2021/03/21 07:46:12;;;;;;;25.47;4.10;;;6.60;90.00;;;;;;4993250;28;20388;-89
2021/03/21 07:48:47;;;;;;;18.93;4.03;;;6.60;89.90;;;;;;4975575;28;20507;-90
2021/03/21 07:52:00;;;;;;;29.20;4.40;;;6.60;89.60;;;;;;4976406;28;20031;-89
2021/03/21 07:54:33;;;;;;;20.73;3.83;;;6.60;89.20;;;;;;4898090;29;20032;-89
2021/03/21 07:57:25;;;;;;;29.87;4.97;;;6.60;88.90;;;;;;4970072;28;20045;-90
2021/03/21 07:59:52;;;;;;;27.17;3.87;;;6.60;88.50;;;;;;4993497;28;20027;-87
2021/03/21 08:02:22;;;;;;;24.40;4.30;;;6.60;88.50;;;;;;4974945;28;20026;-87
2021/03/21 08:04:48;;;;;;;29.50;5.30;;;6.60;88.40;;;;;;4975774;28;20022;-88
2021/03/21 08:07:17;;;;;;;27.20;4.30;;;6.60;88.40;;;;;;4976257;28;20026;-88
2021/03/21 08:09:44;;;;;;;23.25;3.53;;;6.60;88.10;;;;;;4976173;28;20033;-89
2021/03/21 08:12:18;;;;;;;26.93;5.03;;;6.60;88.10;;;;;;4975072;28;20030;-90
2021/03/21 08:14:55;;;;;;;29.67;3.93;;;6.60;87.90;;;;;;4974900;28;20052;-89
2021/03/21 08:17:28;;;;;;;28.40;4.47;;;6.60;87.90;;;;;;4975905;28;20027;-89
2021/03/21 08:20:02;;;;;;;28.73;5.03;;;6.60;88.10;;;;;;4993642;28;20495;-90
2021/03/21 08:22:31;;;;;;;26.07;4.07;;;6.60;88.10;;;;;;4993093;28;20018;-90
2021/03/21 08:25:02;;;;;;;26.95;5.03;;;6.60;87.90;;;;;;4975691;28;20041;-90
2021/03/21 08:27:30;;;;;;;29.13;3.93;;;6.50;87.90;;;;;;4993141;28;20081;-89
2021/03/21 08:30:04;;;;;;;29.27;4.57;;;6.50;88.10;;;;;;4975124;28;20451;-91
2021/03/21 08:32:31;;;;;;;33.37;5.20;;;6.50;88.10;;;;;;4975369;28;20274;-89
2021/03/21 08:35:17;;;;;;;31.63;4.97;;;6.50;87.90;;;;;;4974776;28;20117;-89
2021/03/21 08:37:48;;;;;;;29.33;4.60;;;6.50;87.50;;;;;;4974830;28;20514;-90
2021/03/21 08:40:20;;;;;;;30.27;5.20;;;6.50;87.70;;;;;;4975229;28;20480;-91
2021/03/21 08:42:47;;;;;;;29.73;5.27;;;6.50;87.70;;;;;;4992220;28;20499;-91
2021/03/21 08:45:13;;;;;;;34.13;4.93;;;6.50;87.50;;;;;;4992493;28;20026;-90
2021/03/21 08:47:40;;;;;;;31.30;5.00;;;6.50;87.50;;;;;;4974889;28;20030;-89
2021/03/21 08:50:06;;;;;;;25.63;4.80;;;6.50;87.40;;;;;;4992153;28;20050;-90
2021/03/21 08:52:42;;;;;;;33.37;5.30;;;6.50;87.40;;;;;;4974788;28;20046;-90
2021/03/21 08:55:24;;;;;;;28.37;4.67;;;6.50;87.50;;;;;;4974607;28;20026;-90
2021/03/21 08:57:50;;;;;;;33.67;6.20;;;6.50;87.30;;;;;;4974994;28;20400;-89
2021/03/21 09:00:18;;;;;;;27.07;4.83;;;6.50;87.40;;;;;;4974921;28;20030;-89
2021/03/21 09:02:44;;;;;;;30.60;5.53;;;6.50;87.30;;;;;;4974302;28;20484;-90
2021/03/21 09:05:13;;;;;;;27.70;4.87;;;6.50;87.30;;;;;;4974701;28;20399;-91
2021/03/21 09:08:03;;;;;;;35.87;7.17;;;6.50;87.20;;;;;;4975107;28;20053;-90
2021/03/21 09:10:49;;;;;;;25.80;5.03;;;6.50;86.90;;;;;;4974716;28;20030;-89
2021/03/21 09:13:21;;;;;;;31.43;4.53;;;6.50;86.60;;;;;;4974875;28;20209;-90
2021/03/21 09:16:10;;;;;;;35.23;6.10;;;6.60;87.30;;;;;;4992221;28;20026;-89
2021/03/21 09:18:43;;;;;;;33.57;4.93;;;6.60;86.30;;;;;;4975667;28;20026;-90
2021/03/21 09:21:19;;;;;;;32.20;5.10;;;6.60;86.30;;;;;;4976211;28;20033;-90
2021/03/21 09:23:49;;;;;;;35.70;5.67;;;6.50;86.10;;;;;;4975837;28;20784;-90
2021/03/21 09:26:14;;;;;;;38.83;6.13;;;6.50;86.20;;;;;;4979313;28;20031;-90
2021/03/21 09:28:55;;;;;;;31.33;6.23;;;6.50;86.40;;;;;;4979284;28;20114;-89
2021/03/21 09:31:21;;;;;;;35.03;5.80;;;6.50;86.20;;;;;;4979190;28;20077;-91
2021/03/21 09:33:53;;;;;;;35.80;5.33;;;6.50;85.80;;;;;;4970194;28;20054;-89
2021/03/21 09:36:28;;;;;;;33.53;5.43;;;6.60;85.90;;;;;;4959596;28;20078;-90
2021/03/21 09:39:02;;;;;;;28.80;5.63;;;6.60;85.70;;;;;;4959763;28;20050;-90
2021/03/21 09:41:28;;;;;;;34.17;5.90;;;6.60;85.70;;;;;;4960534;28;20388;-90
2021/03/21 09:44:01;;;;;;;30.37;4.80;;;6.60;85.70;;;;;;4962393;28;20023;-91
2021/03/21 09:46:35;;;;;;;28.40;5.10;;;6.60;85.60;;;;;;4967110;28;20038;-91
2021/03/21 09:49:19;;;;;;;29.80;5.50;;;6.60;85.60;;;;;;4978593;28;20038;-91
2021/03/21 09:52:07;;;;;;;32.43;5.83;;;6.60;85.30;;;;;;4978513;28;20034;-90
2021/03/21 09:54:42;;;;;;;31.07;5.13;;;6.60;85.10;;;;;;4976067;28;20027;-91
2021/03/21 09:57:38;;;;;;;35.50;6.67;;;6.70;85.30;;;;;;4968325;28;20094;-91
2021/03/21 10:00:16;;;;;;;30.90;6.67;;;6.70;84.80;;;;;;4961118;28;20049;-91
2021/03/21 10:02:47;;;;;;;27.70;5.50;;;6.70;84.60;;;;;;4966988;28;20038;-91
2021/03/21 10:05:38;;;;;;;32.23;5.00;;;6.60;84.60;;;;;;4964841;28;20031;-91
2021/03/21 10:08:24;;;;;;;34.07;6.83;;;6.70;84.50;;;;;;4966226;28;20121;-91
2021/03/21 10:11:03;;;;;;;30.17;5.00;;;6.70;84.10;;;;;;4964781;28;20480;-91
2021/03/21 10:13:35;;;;;;;36.17;6.43;;;6.70;84.20;;;;;;4962415;28;20092;-90
2021/03/21 10:16:23;;;;;;;34.93;6.23;;;6.70;84.20;;;;;;4966223;28;20074;-89
2021/03/21 10:18:56;;;;;;;27.33;4.87;;;6.70;83.70;;;;;;4964674;28;20031;-91
2021/03/21 10:21:24;;;;;;;33.50;5.33;;;6.70;84.10;;;;;;4963816;28;20027;-90
2021/03/21 10:23:50;;;;;;;33.08;5.45;;;6.70;83.80;;;;;;4965007;28;20022;-90
2021/03/21 10:26:19;;;;;;;35.80;6.00;;;6.70;83.90;;;;;;4962960;28;20030;-89
2021/03/21 10:28:49;;;;;;;39.87;5.90;;;6.80;83.90;;;;;;4963871;28;20118;-90
2021/03/21 10:31:36;;;;;;;32.40;6.27;;;6.80;83.40;;;;;;4973639;28;20061;-89
2021/03/21 10:34:01;;;;;;;34.30;5.63;;;6.80;83.10;;;;;;4979892;28;20031;-90
2021/03/21 10:36:40;;;;;;;31.40;5.00;;;6.80;83.50;;;;;;4980040;28;20030;-90
2021/03/21 10:39:20;;;;;;;29.60;5.25;;;6.90;83.00;;;;;;4982569;28;20058;-91
2021/03/21 10:42:04;;;;;;;34.30;5.97;;;6.90;82.80;;;;;;4980909;28;20038;-91
2021/03/21 10:44:32;;;;;;;28.43;6.00;;;6.90;82.40;;;;;;4979694;28;20023;-91
2021/03/21 10:47:27;;;;;;;32.95;6.32;;;6.90;82.80;;;;;;4980583;28;20027;-90
2021/03/21 10:49:59;;;;;;;34.77;6.20;;;7.00;82.10;;;;;;4968548;28;20031;-91
2021/03/21 10:52:37;;;;;;;35.43;5.73;;;7.00;82.40;;;;;;4983345;28;20027;-91
2021/03/21 10:55:16;;;;;;;35.90;6.27;;;7.00;81.30;;;;;;4978378;28;20093;-91
2021/03/21 10:57:44;;;;;;;36.10;6.67;;;7.00;82.30;;;;;;4979467;28;20023;-90
2021/03/21 11:00:18;;;;;;;31.70;5.73;;;7.00;82.30;;;;;;4981067;28;20042;-91
2021/03/21 11:02:47;;;;;;;34.17;5.30;;;7.00;82.10;;;;;;4983825;28;20027;-91
2021/03/21 11:05:27;;;;;;;36.00;5.57;;;7.10;82.20;;;;;;4976970;28;20085;-91
2021/03/21 11:08:06;;;;;;;31.50;5.83;;;7.10;80.10;;;;;;4976948;28;20026;-90
2021/03/21 11:10:36;;;;;;;32.72;5.50;;;7.20;81.40;;;;;;4976099;28;20031;-91
2021/03/21 11:13:02;;;;;;;30.37;5.50;;;7.20;81.80;;;;;;4977685;28;20031;-91
2021/03/21 11:15:45;;;;;;;33.47;6.13;;;7.20;81.70;;;;;;4979069;28;20030;-90
2021/03/21 11:18:29;;;;;;;29.20;5.80;;;7.20;80.70;;;;;;4982642;28;20065;-90
2021/03/21 11:21:15;;;;;;;32.97;5.30;;;7.20;81.60;;;;;;4982541;28;20034;-89
2021/03/21 11:23:43;;;;;;;35.83;5.37;;;7.30;81.20;;;;;;4977077;28;20095;-90
2021/03/21 11:26:25;;;;;;;32.73;6.90;;;7.30;81.00;;;;;;4975494;28;20109;-90
2021/03/21 11:29:09;;;;;;;30.73;5.43;;;7.30;81.20;;;;;;4975896;28;20282;-90
2021/03/21 11:31:43;;;;;;;26.90;5.17;;;7.40;80.80;;;;;;4976064;28;20054;-90
2021/03/21 11:34:24;;;;;;;30.00;5.53;;;7.40;79.70;;;;;;4975388;28;20031;-90
2021/03/21 11:37:05;;;;;;;36.40;5.70;;;7.40;79.60;;;;;;4975854;28;20062;-90
2021/03/21 11:39:48;;;;;;;36.23;6.67;;;7.50;79.70;;;;;;4975124;28;20433;-90
2021/03/21 11:42:36;;;;;;;34.93;5.10;;;7.50;79.30;;;;;;4975268;28;20477;-90
2021/03/21 11:45:20;;;;;;;35.63;6.20;;;7.40;79.70;;;;;;4980263;28;20026;-89
2021/03/21 11:47:49;;;;;;;37.50;6.57;;;7.40;79.70;;;;;;4992560;28;20034;-91
2021/03/21 11:50:33;;;;;;;30.08;6.05;;;7.50;80.10;;;;;;4994005;28;20026;-90
2021/03/21 11:53:01;;;;;;;33.00;5.67;;;7.50;76.80;;;;;;4979851;28;20034;-90
2021/03/21 11:55:32;;;;;;;36.07;6.90;;;7.60;78.00;;;;;;4975350;28;20027;-90
2021/03/21 11:58:04;;;;;;;31.30;5.27;;;7.60;78.60;;;;;;4979223;28;20030;-90
2021/03/21 12:00:32;;;;;;;36.97;6.33;;;7.70;78.90;;;;;;4978802;28;20027;-90
2021/03/21 12:03:07;;;;;;;26.47;5.57;;;7.80;78.70;;;;;;4981190;28;20492;-91
2021/03/21 12:05:36;;;;;;;34.10;5.87;;;7.80;77.90;;;;;;4979984;28;20035;-90
2021/03/21 12:08:21;;;;;;;32.17;6.30;;;7.80;77.40;;;;;;4980291;28;20053;-89
2021/03/21 12:10:48;;;;;;;28.63;5.17;;;7.90;78.30;;;;;;4978796;28;20336;-91
2021/03/21 12:13:38;;;;;;;34.03;5.37;;;7.90;78.00;;;;;;4977601;28;20058;-90
2021/03/21 12:16:25;;;;;;;33.17;5.80;;;8.00;77.40;;;;;;4977080;28;20039;-90
2021/03/21 12:18:56;;;;;;;30.80;5.00;;;8.00;76.30;;;;;;4976945;28;20396;-90
2021/03/21 12:21:25;;;;;;;28.00;5.23;;;8.00;76.20;;;;;;4978623;28;20049;-91
2021/03/21 12:23:54;;;;;;;30.30;5.00;;;8.10;75.90;;;;;;4986242;28;20087;-90
2021/03/21 12:26:47;;;;;;;24.97;5.20;;;8.10;75.80;;;;;;4993877;28;20030;-91
2021/03/21 12:29:25;;;;;;;28.07;5.47;;;8.20;75.40;;;;;;4993270;28;20113;-90
2021/03/21 12:32:14;;;;;;;27.87;4.80;;;8.30;73.50;;;;;;4975385;28;20039;-90
2021/03/21 12:34:45;;;;;;;34.35;5.53;;;8.40;74.20;;;;;;4962012;28;20026;-90
2021/03/21 12:37:25;;;;;;;29.80;5.97;;;8.30;72.00;;;;;;4958919;28;20034;-91
2021/03/21 12:40:11;;;;;;;32.07;5.30;;;8.40;73.30;;;;;;4959165;28;20481;-91
2021/03/21 12:42:40;;;;;;;29.73;4.83;;;8.40;72.40;;;;;;4959065;28;20086;-90
2021/03/21 12:45:15;;;;;;;29.77;5.88;;;8.40;73.10;;;;;;4958267;28;20082;-90
2021/03/21 12:47:58;;;;;;;26.93;4.63;;;8.40;73.70;;;;;;4957612;28;20027;-90
2021/03/21 12:50:43;;;;;;;30.90;4.40;;;8.50;74.00;;;;;;4958199;28;20030;-90
2021/03/21 12:53:29;;;;;;;30.40;4.87;;;8.50;73.50;;;;;;4959562;28;20073;-91
2021/03/21 12:56:00;;;;;;;28.43;4.97;;;8.50;73.50;;;;;;4959629;28;20058;-90
2021/03/21 12:58:26;;;;;;;30.03;6.37;;;8.60;73.50;;;;;;4961848;28;20027;-91
2021/03/21 13:00:53;;;;;;;30.10;5.03;;;8.60;73.70;;;;;;4964937;28;20031;-90
2021/03/21 13:03:32;;;;;;;33.97;6.07;;;8.50;74.00;;;;;;4965450;28;20073;-90
2021/03/21 13:06:00;;;;;;;42.60;6.55;;;8.50;73.90;;;;;;4964377;28;20030;-90
2021/03/21 13:08:27;;;;;;;27.73;5.10;;;8.50;74.00;;;;;;4964895;28;20109;-90
2021/03/21 13:10:53;;;;;;;27.30;5.00;;;8.40;73.80;;;;;;4963731;28;20026;-90
2021/03/21 13:13:19;;;;;;;35.27;6.83;;;8.40;74.40;;;;;;4963331;28;20077;-90
2021/03/21 13:15:45;;;;;;;28.57;5.77;;;8.40;74.20;;;;;;4961278;28;20023;-90
2021/03/21 13:18:18;;;;;;;32.07;5.80;;;8.30;74.60;;;;;;4961210;28;20026;-90
2021/03/21 13:20:44;;;;;;;29.07;5.83;;;8.30;74.00;;;;;;4961468;28;20082;-90
2021/03/21 13:23:10;;;;;;;32.00;5.47;;;8.40;73.00;;;;;;4960372;28;20030;-91
2021/03/21 13:25:35;;;;;;;32.20;5.50;;;8.40;74.50;;;;;;4961218;28;20034;-91
2021/03/21 13:28:04;;;;;;;26.33;4.80;;;8.40;74.00;;;;;;4961496;28;20500;-91
2021/03/21 13:30:34;;;;;;;28.73;4.80;;;8.30;73.70;;;;;;4970800;28;20129;-90
2021/03/21 13:32:59;;;;;;;;;;;8.30;73.30;;;;;;4980423;28;20030;-90
2021/03/21 13:35:27;;;;;;;31.93;4.97;;;8.30;73.80;;;;;;4980223;28;19920;-91
2021/03/21 13:37:53;;;;;;;27.80;5.07;;;8.40;72.50;;;;;;4980141;28;20030;-89
2021/03/21 13:40:25;;;;;;;27.13;5.17;;;8.30;72.40;;;;;;4979910;28;20022;-90